createdAt,value
2019-02-19T00:00:50.757Z,21.50
2019-02-19T00:03:19.430Z,18.77
2019-02-19T00:05:48.457Z,18.45
2019-02-19T00:08:37.881Z,16.50
2019-02-19T00:11:06.231Z,17.07
2019-02-19T00:13:34.592Z,13.98
2019-02-19T00:16:03.359Z,17.85
2019-02-19T00:18:31.738Z,23.27
2019-02-19T00:21:00.106Z,16.80
2019-02-19T00:23:28.497Z,20.43
2019-02-19T00:25:56.848Z,20.57
2019-02-19T00:28:25.222Z,22.70
2019-02-19T00:30:53.615Z,17.30
2019-02-19T00:33:21.997Z,19.73
2019-02-19T00:35:51.155Z,21.42
2019-02-19T00:38:19.514Z,19.57
2019-02-19T00:40:47.906Z,21.05
2019-02-19T00:43:17.039Z,20.37
2019-02-19T00:45:45.809Z,18.77
2019-02-19T00:48:14.787Z,18.45
2019-02-19T00:50:44.583Z,19.67
2019-02-19T00:53:12.982Z,23.55
2019-02-19T00:55:41.347Z,19.25
2019-02-19T00:58:09.711Z,18.52
2019-02-19T01:00:38.431Z,19.07
2019-02-19T01:03:07.729Z,17.75
2019-02-19T01:05:36.789Z,18.52
2019-02-19T01:08:05.402Z,17.92
2019-02-19T01:10:34.351Z,16.02
2019-02-19T01:13:03.085Z,20.20
2019-02-19T01:15:31.450Z,20.30
2019-02-19T01:17:59.820Z,23.98
2019-02-19T01:20:28.210Z,22.73
2019-02-19T01:22:56.566Z,25.23
2019-02-19T01:25:44.377Z,22.52
2019-02-19T01:28:12.735Z,19.25
2019-02-19T01:30:41.105Z,19.67
2019-02-19T01:33:09.497Z,20.72
2019-02-19T01:35:38.143Z,22.82
2019-02-19T01:38:26.209Z,19.77
2019-02-19T01:43:22.295Z,18.90
2019-02-19T01:45:50.678Z,23.02
2019-02-19T01:48:19.383Z,18.60
2019-02-19T01:50:47.755Z,19.07
2019-02-19T01:53:16.450Z,22.77
2019-02-19T01:55:45.482Z,19.23
2019-02-19T01:58:15.027Z,22.07
2019-02-19T02:00:43.312Z,19.67
2019-02-19T02:03:12.349Z,18.02
2019-02-19T02:05:40.738Z,17.45
2019-02-19T02:08:09.100Z,18.55
2019-02-19T02:10:37.753Z,22.30
2019-02-19T02:13:06.212Z,19.32
2019-02-19T02:15:42.296Z,18.65
2019-02-19T02:18:04.935Z,21.00
2019-02-19T02:20:33.295Z,16.80
2019-02-19T02:23:01.655Z,23.90
2019-02-19T02:25:30.043Z,20.43
2019-02-19T02:27:58.418Z,16.95
2019-02-19T02:30:26.775Z,19.60
2019-02-19T02:32:55.171Z,20.55
2019-02-19T02:35:23.547Z,20.27
2019-02-19T02:37:52.164Z,16.65
2019-02-19T02:40:21.227Z,17.32
2019-02-19T02:42:49.938Z,21.20
2019-02-19T02:45:18.993Z,16.45
2019-02-19T02:47:48.119Z,19.70
2019-02-19T02:50:16.475Z,16.67
2019-02-19T02:52:44.879Z,18.95
2019-02-19T02:55:13.572Z,19.30
2019-02-19T02:57:41.927Z,17.92
2019-02-19T03:00:11.984Z,17.90
2019-02-19T03:02:59.837Z,20.20
2019-02-19T03:05:28.486Z,15.68
2019-02-19T03:07:58.502Z,18.98
2019-02-19T03:10:26.884Z,20.10
2019-02-19T03:12:55.562Z,16.52
2019-02-19T03:15:24.251Z,23.52
2019-02-19T03:17:53.200Z,23.38
2019-02-19T03:20:21.571Z,16.42
2019-02-19T03:22:49.930Z,16.42
2019-02-19T03:25:39.376Z,20.55
2019-02-19T03:28:07.714Z,16.30
2019-02-19T03:30:36.128Z,19.37
2019-02-19T03:33:04.487Z,14.38
2019-02-19T03:35:33.509Z,15.43
2019-02-19T03:38:05.145Z,16.50
2019-02-19T03:40:33.583Z,16.70
2019-02-19T03:43:01.933Z,17.10
2019-02-19T03:45:30.888Z,16.80
2019-02-19T03:47:59.919Z,18.57
2019-02-19T03:50:28.349Z,18.95
2019-02-19T03:53:16.098Z,18.17
2019-02-19T03:55:45.063Z,17.90
2019-02-19T03:58:14.193Z,15.13
2019-02-19T04:01:02.009Z,15.58
2019-02-19T04:03:30.366Z,17.02
2019-02-19T04:05:58.721Z,17.90
2019-02-19T04:08:28.171Z,15.08
2019-02-19T04:10:58.186Z,17.67
2019-02-19T04:13:26.872Z,14.95
2019-02-19T04:15:55.556Z,15.08
2019-02-19T04:18:23.906Z,13.72
2019-02-19T04:20:52.190Z,16.27
2019-02-19T04:23:20.583Z,15.95
2019-02-19T04:25:49.271Z,15.32
2019-02-19T04:28:17.657Z,16.27
2019-02-19T04:30:46.020Z,16.07
2019-02-19T04:33:14.385Z,13.95
2019-02-19T04:35:43.092Z,16.75
2019-02-19T04:38:11.474Z,15.65
2019-02-19T04:40:40.403Z,16.95
2019-02-19T04:43:08.766Z,21.80
2019-02-19T04:45:37.174Z,17.77
2019-02-19T04:48:06.305Z,17.05
2019-02-19T04:50:35.326Z,18.02
2019-02-19T04:53:03.636Z,17.40
2019-02-19T04:55:32.263Z,16.97
2019-02-19T04:58:00.666Z,16.82
2019-02-19T05:00:29.723Z,18.65
2019-02-19T05:02:58.109Z,16.77
2019-02-19T05:05:26.467Z,15.72
2019-02-19T05:07:55.267Z,13.65
2019-02-19T05:10:24.242Z,15.20
2019-02-19T05:12:52.743Z,17.25
2019-02-19T05:15:21.088Z,13.38
2019-02-19T05:17:49.475Z,15.43
2019-02-19T05:20:17.838Z,14.80
2019-02-19T05:22:46.231Z,20.60
2019-02-19T05:25:14.755Z,19.37
2019-02-19T05:27:43.107Z,14.23
2019-02-19T05:30:32.547Z,18.48
2019-02-19T05:33:00.903Z,20.45
2019-02-19T05:35:29.660Z,16.77
2019-02-19T05:37:58.025Z,22.07
2019-02-19T05:40:26.413Z,17.42
2019-02-19T05:42:56.061Z,17.57
2019-02-19T05:45:24.465Z,19.60
2019-02-19T05:47:53.084Z,18.82
2019-02-19T05:50:21.764Z,17.80
2019-02-19T05:52:50.125Z,18.73
2019-02-19T05:55:20.148Z,15.85
2019-02-19T05:57:48.517Z,15.45
2019-02-19T06:00:17.223Z,15.40
2019-02-19T06:02:45.619Z,20.25
2019-02-19T06:05:13.980Z,19.85
2019-02-19T06:07:42.381Z,19.40
2019-02-19T06:10:12.486Z,15.75
2019-02-19T06:12:41.241Z,19.15
2019-02-19T06:15:29.911Z,16.82
2019-02-19T06:17:58.993Z,16.62
2019-02-19T06:20:28.087Z,20.27
2019-02-19T06:22:56.460Z,16.55
2019-02-19T06:25:24.855Z,22.55
2019-02-19T06:27:53.215Z,18.35
2019-02-19T06:30:21.620Z,16.52
2019-02-19T06:32:50.299Z,15.85
2019-02-19T06:35:18.620Z,17.85
2019-02-19T06:37:47.971Z,14.43
2019-02-19T06:40:24.729Z,19.25
2019-02-19T06:42:53.118Z,17.90
2019-02-19T06:45:41.163Z,13.72
2019-02-19T06:50:37.247Z,16.12
2019-02-19T06:53:05.617Z,15.55
2019-02-19T06:55:34.014Z,16.97
2019-02-19T06:58:02.383Z,16.62
2019-02-19T07:00:50.255Z,14.83
2019-02-19T07:03:22.974Z,16.25
2019-02-19T07:05:51.329Z,19.20
2019-02-19T07:08:19.720Z,14.90
2019-02-19T07:10:48.092Z,11.97
2019-02-19T07:13:16.768Z,16.93
2019-02-19T07:15:45.824Z,15.58
2019-02-19T07:18:14.178Z,13.22
2019-02-19T07:20:43.241Z,16.20
2019-02-19T07:23:11.648Z,15.48
2019-02-19T07:25:40.034Z,15.00
2019-02-19T07:28:08.412Z,15.48
2019-02-19T07:30:37.052Z,16.85
2019-02-19T07:33:05.440Z,16.50
2019-02-19T07:35:33.798Z,16.42
2019-02-19T07:38:02.210Z,16.07
2019-02-19T07:40:30.584Z,19.67
2019-02-19T07:42:58.939Z,20.05
2019-02-19T07:45:27.335Z,19.75
2019-02-19T07:47:55.711Z,19.17
2019-02-19T07:50:24.378Z,15.55
2019-02-19T07:52:53.062Z,17.23
2019-02-19T07:55:21.444Z,17.27
2019-02-19T07:57:49.808Z,15.70
2019-02-19T08:00:18.181Z,15.83
2019-02-19T08:02:46.892Z,14.35
2019-02-19T08:05:15.841Z,15.15
2019-02-19T08:07:44.202Z,17.55
2019-02-19T08:10:13.144Z,20.15
2019-02-19T08:12:41.495Z,15.70
2019-02-19T08:15:12.456Z,14.35
2019-02-19T08:17:40.834Z,17.15
2019-02-19T08:20:16.015Z,18.67
2019-02-19T08:22:40.475Z,18.60
2019-02-19T08:25:08.805Z,16.12
2019-02-19T08:27:37.088Z,18.52
2019-02-19T08:30:26.787Z,17.55
2019-02-19T08:32:55.728Z,17.95
2019-02-19T08:35:24.086Z,23.22
2019-02-19T08:37:53.459Z,19.77
2019-02-19T08:40:21.816Z,18.92
2019-02-19T08:42:50.951Z,36.95
2019-02-19T08:45:19.353Z,15.15
2019-02-19T08:47:47.723Z,16.17
2019-02-19T08:50:17.093Z,19.40
2019-02-19T08:52:45.467Z,17.42
2019-02-19T08:55:13.830Z,16.07
2019-02-19T08:57:42.193Z,14.23
2019-02-19T09:00:12.383Z,22.48
2019-02-19T09:02:41.423Z,15.75
2019-02-19T09:05:09.798Z,19.52
2019-02-19T09:07:39.113Z,14.75
2019-02-19T09:10:10.311Z,17.95
2019-02-19T09:12:39.055Z,14.65
2019-02-19T09:15:33.334Z,18.23
2019-02-19T09:18:01.439Z,18.07
2019-02-19T09:20:31.455Z,21.40
2019-02-19T09:22:59.807Z,15.53
2019-02-19T09:25:28.196Z,17.57
2019-02-19T09:27:56.578Z,21.80
2019-02-19T09:30:24.965Z,24.15
2019-02-19T09:32:54.086Z,16.45
2019-02-19T09:35:23.252Z,18.77
2019-02-19T09:37:52.115Z,15.32
2019-02-19T09:40:20.620Z,22.00
2019-02-19T09:42:49.275Z,20.17
2019-02-19T09:45:17.635Z,18.07
2019-02-19T09:47:46.031Z,19.60
2019-02-19T09:50:14.401Z,15.13
2019-02-19T09:52:42.811Z,18.25
2019-02-19T09:55:11.467Z,14.90
2019-02-19T09:57:41.179Z,18.95
2019-02-19T10:00:14.168Z,19.20
2019-02-19T10:02:43.975Z,18.73
2019-02-19T10:05:12.483Z,17.52
2019-02-19T10:07:40.883Z,15.93
2019-02-19T10:10:30.304Z,17.77
2019-02-19T10:12:58.989Z,24.57
2019-02-19T10:15:27.356Z,16.20
2019-02-19T10:17:56.050Z,21.68
2019-02-19T10:20:25.074Z,19.57
2019-02-19T10:22:54.343Z,21.82
2019-02-19T10:25:22.790Z,18.82
2019-02-19T10:27:51.402Z,18.10
2019-02-19T10:30:20.431Z,17.60
2019-02-19T10:32:49.392Z,24.72
2019-02-19T10:35:17.760Z,16.70
2019-02-19T10:37:46.458Z,19.23
2019-02-19T10:40:18.987Z,21.07
2019-02-19T10:42:47.344Z,19.60
2019-02-19T10:45:18.956Z,23.95
2019-02-19T10:47:47.342Z,21.20
2019-02-19T10:50:16.023Z,18.85
2019-02-19T10:52:44.807Z,20.17
2019-02-19T10:55:13.207Z,20.35
2019-02-19T10:57:41.867Z,23.67
2019-02-19T11:00:20.572Z,27.15
2019-02-19T11:02:48.930Z,21.37
2019-02-19T11:05:17.228Z,20.45
2019-02-19T11:07:47.260Z,21.37
2019-02-19T11:10:36.667Z,20.70
2019-02-19T11:13:06.188Z,20.43
2019-02-19T11:15:34.546Z,20.92
2019-02-19T11:18:03.822Z,21.52
2019-02-19T11:20:32.311Z,27.80
2019-02-19T11:23:01.346Z,24.00
2019-02-19T11:25:29.727Z,20.95
2019-02-19T11:27:58.774Z,21.57
2019-02-19T11:30:28.511Z,23.50
2019-02-19T11:32:57.551Z,20.48
2019-02-19T11:35:25.911Z,24.95
2019-02-19T11:37:55.684Z,16.32
2019-02-19T11:40:43.494Z,14.13
2019-02-19T11:43:11.879Z,15.20
2019-02-19T11:45:40.238Z,14.75
2019-02-19T11:48:08.635Z,10.85
2019-02-19T11:50:37.008Z,11.48
2019-02-19T11:53:05.404Z,13.05
2019-02-19T11:55:33.774Z,11.95
2019-02-19T11:58:02.150Z,12.33
2019-02-19T12:00:32.968Z,12.55
2019-02-19T12:03:01.330Z,11.05
2019-02-19T12:05:29.728Z,13.72
2019-02-19T12:07:58.402Z,13.98
2019-02-19T12:10:26.803Z,14.07
2019-02-19T12:12:55.207Z,13.85
2019-02-19T12:15:23.838Z,6.53
2019-02-19T12:17:52.811Z,11.08
2019-02-19T12:20:21.519Z,11.43
2019-02-19T12:22:50.559Z,8.18
2019-02-19T12:25:18.948Z,9.90
2019-02-19T12:27:48.088Z,8.98
2019-02-19T12:30:20.142Z,9.85
2019-02-19T12:32:48.834Z,10.38
2019-02-19T12:35:19.281Z,8.25
2019-02-19T12:37:47.643Z,12.93
2019-02-19T12:40:16.325Z,11.68
2019-02-19T12:42:44.732Z,11.05
2019-02-19T12:45:14.641Z,14.15
2019-02-19T12:47:43.676Z,10.18
2019-02-19T12:50:13.996Z,6.83
2019-02-19T12:52:42.388Z,5.55
2019-02-19T12:55:11.345Z,8.83
2019-02-19T12:57:39.715Z,9.90
2019-02-19T13:00:18.815Z,9.20
2019-02-19T13:02:47.219Z,9.70
2019-02-19T13:05:16.330Z,8.10
2019-02-19T13:07:44.708Z,11.33
2019-02-19T13:10:14.259Z,8.10
2019-02-19T13:12:43.205Z,7.97
2019-02-19T13:15:17.424Z,8.45
2019-02-19T13:17:45.810Z,8.58
2019-02-19T13:20:14.847Z,8.58
2019-02-19T13:22:43.212Z,10.65
2019-02-19T13:25:12.405Z,7.12
2019-02-19T13:27:40.768Z,12.50
2019-02-19T13:30:16.935Z,7.42
2019-02-19T13:32:45.291Z,8.10
2019-02-19T13:35:14.830Z,6.42
2019-02-19T13:37:43.236Z,6.90
2019-02-19T13:40:16.852Z,8.98
2019-02-19T13:42:45.212Z,8.70
2019-02-19T13:45:16.413Z,9.10
2019-02-19T13:47:44.774Z,7.47
2019-02-19T13:50:22.153Z,6.22
2019-02-19T13:52:54.875Z,7.47
2019-02-19T13:55:25.221Z,9.35
2019-02-19T13:57:53.609Z,10.18
2019-02-19T14:00:23.696Z,6.87
2019-02-19T14:02:52.103Z,9.00
2019-02-19T14:05:20.659Z,8.40
2019-02-19T14:07:49.694Z,7.28
2019-02-19T14:10:18.078Z,7.08
2019-02-19T14:12:46.371Z,7.78
2019-02-19T14:18:13.911Z,6.30
2019-02-19T14:23:37.474Z,5.08
2019-02-19T14:26:10.269Z,7.62
2019-02-19T14:28:49.823Z,5.85
2019-02-19T14:31:32.489Z,6.72
2019-02-19T14:34:05.841Z,8.50
2019-02-19T14:36:52.655Z,4.45
2019-02-19T14:39:31.446Z,7.25
2019-02-19T14:42:10.199Z,7.42
2019-02-19T14:44:43.638Z,7.05
2019-02-19T14:47:16.387Z,6.00
2019-02-19T14:49:53.212Z,9.00
2019-02-19T14:52:38.132Z,5.80
2019-02-19T14:55:17.279Z,4.40
2019-02-19T14:57:54.279Z,7.08
2019-02-19T15:06:13.063Z,4.97
2019-02-19T15:08:48.962Z,7.60
2019-02-19T15:11:22.025Z,8.08
2019-02-19T15:13:52.331Z,4.92
2019-02-19T15:16:38.279Z,7.22
2019-02-19T15:19:08.242Z,8.08
2019-02-19T15:24:48.410Z,5.50
2019-02-19T15:27:22.011Z,5.30
2019-02-19T15:29:52.019Z,6.20
2019-02-19T15:32:25.023Z,7.72
2019-02-19T15:34:58.306Z,5.42
2019-02-19T15:37:34.255Z,7.10
2019-02-19T15:40:04.427Z,6.12
2019-02-19T15:42:35.191Z,6.45
2019-02-19T15:45:09.122Z,6.17
2019-02-19T15:47:42.355Z,6.87
2019-02-19T15:50:15.110Z,7.83
2019-02-19T15:52:57.031Z,11.15
2019-02-19T15:58:18.136Z,6.03
2019-02-19T16:01:05.139Z,6.45
2019-02-19T16:03:35.241Z,6.60
2019-02-19T16:06:08.237Z,8.00
2019-02-19T16:08:44.396Z,6.80
2019-02-19T16:11:15.232Z,4.62
2019-02-19T16:13:45.255Z,7.15
2019-02-19T16:16:31.786Z,8.60
2019-02-19T16:19:02.074Z,8.95
2019-02-19T16:21:37.211Z,7.90
2019-02-19T16:24:07.312Z,8.40
2019-02-19T16:26:37.651Z,6.05
2019-02-19T16:29:16.884Z,6.58
2019-02-19T16:31:50.687Z,7.17
2019-02-19T16:34:23.922Z,9.23
2019-02-19T16:36:58.407Z,5.60
2019-02-19T16:39:31.130Z,6.62
2019-02-19T16:44:58.494Z,7.92
2019-02-19T16:47:45.121Z,8.30
2019-02-19T16:50:21.258Z,6.53
2019-02-19T16:53:07.529Z,8.80
2019-02-19T16:55:40.239Z,4.60
2019-02-19T16:58:10.855Z,6.83
2019-02-19T17:00:40.892Z,8.33
2019-02-19T17:05:58.117Z,6.75
2019-02-19T17:08:28.452Z,7.17
2019-02-19T17:10:58.473Z,7.35
2019-02-19T17:14:02.664Z,4.85
2019-02-19T17:16:48.859Z,10.70
2019-02-19T17:19:19.150Z,7.45
2019-02-19T17:21:51.965Z,7.45
2019-02-19T17:24:27.908Z,9.00
2019-02-19T17:27:14.701Z,6.65
2019-02-19T17:29:49.958Z,8.35
2019-02-19T17:35:17.350Z,7.45
2019-02-19T17:38:14.106Z,7.58
2019-02-19T17:40:42.077Z,12.40
2019-02-19T17:46:07.960Z,7.05
2019-02-19T17:48:38.329Z,9.53
2019-02-19T17:51:11.458Z,8.38
2019-02-19T17:53:59.299Z,9.85
2019-02-19T17:56:29.328Z,15.05
2019-02-19T18:02:09.922Z,10.68
2019-02-19T18:04:49.132Z,9.30
2019-02-19T18:07:35.270Z,13.03
2019-02-19T18:10:24.505Z,10.58
2019-02-19T18:16:06.658Z,12.70
2019-02-19T18:18:49.186Z,8.45
2019-02-19T18:21:17.971Z,12.98
2019-02-19T18:23:46.321Z,10.35
2019-02-19T18:26:15.277Z,9.70
2019-02-19T18:28:43.635Z,8.80
2019-02-19T18:31:13.833Z,10.35
2019-02-19T18:33:42.150Z,10.03
2019-02-19T18:36:10.518Z,6.53
2019-02-19T18:38:38.901Z,10.30
2019-02-19T18:41:07.704Z,11.25
2019-02-19T18:43:36.437Z,7.33
2019-02-19T18:46:04.804Z,11.90
2019-02-19T18:48:33.161Z,8.63
2019-02-19T18:51:01.524Z,17.07
2019-02-19T18:53:29.914Z,7.37
2019-02-19T18:55:58.283Z,10.10
2019-02-19T18:58:29.446Z,8.20
2019-02-19T19:00:57.864Z,8.88
2019-02-19T19:03:26.238Z,15.20
2019-02-19T19:05:55.288Z,7.78
2019-02-19T19:08:23.667Z,9.28
2019-02-19T19:10:52.076Z,10.48
2019-02-19T19:13:20.436Z,10.80
2019-02-19T19:15:48.791Z,11.50
2019-02-19T19:18:19.261Z,9.58
2019-02-19T19:20:48.305Z,8.90
2019-02-19T19:23:16.704Z,10.85
2019-02-19T19:25:46.097Z,9.35
2019-02-19T19:28:14.441Z,9.63
2019-02-19T19:30:42.885Z,10.93
2019-02-19T19:33:12.054Z,9.95
2019-02-19T19:35:40.496Z,10.03
2019-02-19T19:38:08.929Z,7.10
2019-02-19T19:40:37.623Z,7.60
2019-02-19T19:43:06.535Z,7.60
2019-02-19T19:45:34.914Z,8.68
2019-02-19T19:48:03.247Z,9.18
2019-02-19T19:50:32.300Z,7.35
2019-02-19T19:53:00.660Z,9.53
2019-02-19T19:55:29.795Z,9.70
2019-02-19T19:57:59.591Z,8.38
2019-02-19T20:00:29.699Z,9.40
2019-02-19T20:02:58.148Z,6.45
2019-02-19T20:05:27.425Z,8.63
2019-02-19T20:07:55.819Z,10.48
2019-02-19T20:10:24.463Z,10.13
2019-02-19T20:12:53.143Z,12.10
2019-02-19T20:15:21.813Z,11.53
2019-02-19T20:17:50.893Z,9.60
2019-02-19T20:20:19.544Z,11.22
2019-02-19T20:22:49.218Z,10.63
2019-02-19T20:25:17.899Z,14.55
2019-02-19T20:27:46.288Z,13.08
2019-02-19T20:30:16.119Z,8.23
2019-02-19T20:32:44.610Z,11.15
2019-02-19T20:35:14.049Z,8.13
2019-02-19T20:37:42.421Z,12.88
2019-02-19T20:40:12.150Z,13.20
2019-02-19T20:42:42.672Z,12.03
2019-02-19T20:45:12.387Z,11.50
2019-02-19T20:47:41.108Z,9.58
2019-02-19T20:50:13.765Z,14.40
2019-02-19T20:52:42.155Z,11.08
2019-02-19T20:55:11.600Z,10.23
2019-02-19T20:57:39.949Z,12.25
2019-02-19T21:00:17.061Z,12.03
2019-02-19T21:02:45.473Z,8.55
2019-02-19T21:05:13.867Z,10.28
2019-02-19T21:07:42.821Z,16.93
2019-02-19T21:10:14.040Z,14.53
2019-02-19T21:12:44.630Z,14.70
2019-02-19T21:15:13.814Z,8.80
2019-02-19T21:17:42.342Z,14.15
2019-02-19T21:20:13.912Z,10.32
2019-02-19T21:22:42.234Z,12.37
2019-02-19T21:25:11.155Z,8.23
2019-02-19T21:27:39.515Z,9.63
2019-02-19T21:30:13.411Z,11.63
2019-02-19T21:32:43.115Z,10.38
2019-02-19T21:35:12.414Z,10.65
2019-02-19T21:37:41.100Z,8.93
2019-02-19T21:40:30.507Z,14.53
2019-02-19T21:42:58.882Z,12.68
2019-02-19T21:45:27.245Z,13.88
2019-02-19T21:47:55.602Z,10.85
2019-02-19T21:50:23.987Z,12.82
2019-02-19T21:52:53.281Z,14.90
2019-02-19T21:55:21.640Z,16.17
2019-02-19T21:57:51.499Z,12.68
2019-02-19T22:00:21.534Z,15.98
2019-02-19T22:02:49.930Z,17.05
2019-02-19T22:05:37.711Z,15.45
2019-02-19T22:08:06.380Z,17.65
2019-02-19T22:10:34.743Z,17.90
2019-02-19T22:13:04.162Z,17.98
2019-02-19T22:15:33.110Z,15.03
2019-02-19T22:18:01.404Z,13.68
2019-02-19T22:20:31.449Z,16.73
2019-02-19T22:22:59.798Z,15.00
2019-02-19T22:25:28.403Z,16.12
2019-02-19T22:27:56.786Z,18.90
2019-02-19T22:30:25.705Z,13.65
2019-02-19T22:32:54.041Z,18.05
2019-02-19T22:35:22.438Z,17.07
2019-02-19T22:37:51.111Z,15.60
2019-02-19T22:40:19.474Z,16.73
2019-02-19T22:42:48.520Z,16.27
2019-02-19T22:45:18.219Z,15.98
2019-02-19T22:47:53.153Z,12.58
2019-02-19T22:50:16.623Z,17.30
2019-02-19T22:52:44.988Z,15.65
2019-02-19T22:58:04.799Z,15.30
2019-02-19T23:00:45.792Z,14.38
2019-02-19T23:03:17.183Z,16.45
2019-02-19T23:05:45.562Z,11.85
2019-02-19T23:08:13.923Z,18.92
2019-02-19T23:10:42.315Z,13.18
2019-02-19T23:13:11.354Z,15.28
2019-02-19T23:15:39.754Z,15.78
2019-02-19T23:18:08.107Z,12.13
2019-02-19T23:20:36.468Z,16.93
2019-02-19T23:23:04.845Z,16.00
2019-02-19T23:25:33.502Z,14.18
2019-02-19T23:28:01.891Z,15.63
2019-02-19T23:30:30.258Z,9.60
2019-02-19T23:32:58.644Z,15.30
2019-02-19T23:35:37.820Z,15.05
2019-02-19T23:38:07.679Z,17.05
2019-02-19T23:40:36.415Z,16.67
2019-02-19T23:43:04.726Z,28.77
2019-02-19T23:45:34.774Z,16.30
2019-02-19T23:48:03.096Z,17.92
2019-02-19T23:50:32.640Z,22.52
2019-02-19T23:53:01.022Z,19.40
2019-02-19T23:55:30.058Z,21.87
2019-02-19T23:57:59.312Z,15.53
